Time;durP1;ratioP1;P1;durP2;ratioP2;P2;SDS_P1;SDS_P2;PMS_P1;PMS_P2;Temp;Humidity;BMP_temperature;BMP_pressure;BME280_temperature;BME280_humidity;BME280_pressure;Samples;Min_cycle;Max_cycle;Signal;HPM_P1;HPM_P2
2023/03/05 00:02:00;;;;;;;33.40;26.70;;;;;;;9.66;58.54;100865.89;106805;1270;25334;-49
2023/03/05 00:04:28;;;;;;;39.90;27.60;;;;;;;9.64;58.45;100868.02;107011;1268;25318;-49
2023/03/05 00:06:56;;;;;;;36.40;27.30;;;;;;;9.59;58.46;100870.51;106227;1273;1016437;-49
2023/03/05 00:09:25;;;;;;;35.50;26.00;;;;;;;9.53;58.36;100870.44;107114;1273;25341;-49
2023/03/05 00:11:56;;;;;;;36.30;27.90;;;;;;;9.47;58.54;100871.77;107091;1268;25487;-49
2023/03/05 00:14:25;;;;;;;40.00;27.80;;;;;;;9.43;58.67;100874.58;107092;1268;23212;-49
2023/03/05 00:16:53;;;;;;;38.10;27.30;;;;;;;9.41;58.74;100876.52;106975;1270;22540;-49
2023/03/05 00:19:23;;;;;;;41.60;27.20;;;;;;;9.41;58.65;100874.09;107010;1270;25344;-49
2023/03/05 00:21:52;;;;;;;37.60;26.20;;;;;;;9.40;58.44;100871.67;106899;1271;25397;-48
2023/03/05 00:24:27;;;;;;;36.90;25.60;;;;;;;9.39;58.23;100869.44;106749;1257;25322;-48
2023/03/05 00:26:56;;;;;;;34.90;25.80;;;;;;;9.38;58.20;100871.02;107047;1269;25502;-48
2023/03/05 00:29:26;;;;;;;34.60;24.50;;;;;;;9.37;58.19;100867.58;107020;1253;24234;-48
2023/03/05 00:31:58;;;;;;;36.00;25.80;;;;;;;9.38;58.02;100869.45;106924;1273;25361;-48
2023/03/05 00:34:28;;;;;;;33.90;25.50;;;;;;;9.35;57.74;100870.72;106292;1269;1003190;-48
2023/03/05 00:36:58;;;;;;;35.20;25.90;;;;;;;9.26;57.52;100871.55;106815;1270;26483;-51
2023/03/05 00:39:26;;;;;;;35.10;24.10;;;;;;;9.19;57.56;100875.80;107060;1260;25325;-48
2023/03/05 00:41:55;;;;;;;35.60;26.40;;;;;;;9.11;57.56;100879.02;106997;1269;25344;-48
2023/03/05 00:44:24;;;;;;;35.10;24.90;;;;;;;9.03;57.62;100880.52;107001;1269;25539;-48
2023/03/05 00:46:52;;;;;;;33.20;24.40;;;;;;;8.98;57.71;100884.05;106820;1273;25405;-48
2023/03/05 00:49:21;;;;;;;30.30;24.30;;;;;;;8.98;57.67;100887.68;107049;1269;25334;-48
2023/03/05 00:51:51;;;;;;;32.40;24.50;;;;;;;8.98;57.60;100890.11;107033;1268;25322;-48
2023/03/05 00:54:19;;;;;;;30.00;23.50;;;;;;;8.93;57.61;100892.23;106835;1270;25388;-48
2023/03/05 00:56:49;;;;;;;32.10;25.40;;;;;;;8.86;57.62;100896.16;106988;1272;22577;-48
2023/03/05 00:59:17;;;;;;;33.10;22.30;;;;;;;8.77;57.73;100894.52;106974;1269;25338;-48
2023/03/05 01:01:46;;;;;;;32.60;23.10;;;;;;;8.73;57.87;100903.22;106858;1269;25346;-49
2023/03/05 01:04:16;;;;;;;34.20;24.10;;;;;;;8.71;58.39;100911.20;107015;1268;25407;-50
2023/03/05 01:06:46;;;;;;;33.40;23.40;;;;;;;8.71;58.76;100914.30;106985;1269;22762;-47
2023/03/05 01:09:16;;;;;;;32.60;23.40;;;;;;;8.72;59.13;100906.69;106804;1269;26656;-48
2023/03/05 01:11:44;;;;;;;34.00;26.30;;;;;;;8.72;59.48;100902.54;106720;1272;22636;-48
2023/03/05 01:14:14;;;;;;;31.60;23.90;;;;;;;8.73;59.41;100904.79;106790;1270;22744;-48
2023/03/05 01:16:43;;;;;;;29.80;23.30;;;;;;;8.74;59.52;100903.90;107037;1269;25346;-48
2023/03/05 01:19:13;;;;;;;34.10;23.80;;;;;;;8.74;59.84;100903.71;107047;1269;24233;-48
2023/03/05 01:21:41;;;;;;;33.30;25.00;;;;;;;8.75;59.80;100909.08;107005;1268;25481;-48
2023/03/05 01:24:25;;;;;;;35.60;24.60;;;;;;;8.74;59.87;100907.19;106262;1269;1003409;-48
2023/03/05 01:26:53;;;;;;;33.20;25.10;;;;;;;8.74;59.85;100905.63;107042;1269;25498;-48
2023/03/05 01:29:22;;;;;;;36.20;25.90;;;;;;;8.73;59.73;100909.27;106077;1269;1003665;-48
2023/03/05 01:31:51;;;;;;;33.30;25.10;;;;;;;8.71;59.60;100911.90;107021;1268;22518;-47
2023/03/05 01:34:20;;;;;;;37.10;25.80;;;;;;;8.68;59.73;100911.06;107040;1269;25436;-48
2023/03/05 01:36:54;;;;;;;32.90;23.90;;;;;;;8.65;60.02;100912.48;106424;1270;25430;-49
2023/03/05 01:39:23;;;;;;;36.60;25.60;;;;;;;8.65;60.35;100912.48;106836;1270;24983;-48
2023/03/05 01:41:51;;;;;;;34.00;25.10;;;;;;;8.68;60.40;100910.71;106796;1270;25340;-49
2023/03/05 01:44:27;;;;;;;36.00;25.30;;;;;;;8.74;60.38;100909.25;107071;1269;26598;-48
2023/03/05 01:46:55;;;;;;;36.40;26.50;;;;;;;8.78;60.31;100910.77;107024;1269;22541;-48
2023/03/05 01:49:35;;;;;;;35.90;24.90;;;;;;;8.83;60.43;100911.58;106986;1269;24206;-49
2023/03/05 01:52:12;;;;;;;36.40;25.20;;;;;;;8.87;60.09;100912.39;106962;1269;25552;-48
2023/03/05 01:55:19;;;;;;;35.40;24.60;;;;;;;8.89;59.37;100915.13;106833;1270;22534;-48
2023/03/05 01:58:01;;;;;;;36.10;24.90;;;;;;;8.90;58.62;100918.76;106391;1276;22814;-48
2023/03/05 02:00:39;;;;;;;;;;;;;;;8.91;58.21;100923.94;106397;1276;25460;-48
2023/03/05 02:03:08;;;;;;;38.90;23.80;;;;;;;8.89;57.87;100930.86;106494;1261;22647;-48
2023/03/05 02:05:38;;;;;;;38.70;23.70;;;;;;;8.85;57.71;100931.96;106397;1276;25319;-48
2023/03/05 02:08:09;;;;;;;33.10;24.20;;;;;;;8.84;57.78;100940.48;106312;1276;25381;-48
2023/03/05 02:10:42;;;;;;;32.70;23.70;;;;;;;8.81;57.57;100946.38;105731;1276;1002861;-48
2023/03/05 02:13:21;;;;;;;36.70;25.10;;;;;;;8.77;57.48;100954.02;106366;1275;22565;-47
2023/03/05 02:15:50;;;;;;;33.30;23.50;;;;;;;8.72;57.29;100956.50;106386;1275;24211;-49
2023/03/05 02:18:21;;;;;;;34.80;24.50;;;;;;;8.71;57.11;100957.90;106328;1275;25401;-49
2023/03/05 02:20:55;;;;;;;31.90;23.30;;;;;;;8.71;57.03;100958.59;106215;1283;25360;-49
2023/03/05 02:23:28;;;;;;;32.90;22.90;;;;;;;8.73;56.92;100962.02;106362;1276;22666;-48
2023/03/05 02:25:57;;;;;;;34.80;24.20;;;;;;;8.75;56.90;100964.26;106273;1283;24349;-49
2023/03/05 02:28:31;;;;;;;37.10;26.30;;;;;;;8.75;57.43;100969.95;106315;1276;25327;-48
2023/03/05 02:31:01;;;;;;;37.40;26.10;;;;;;;8.76;58.08;100972.53;106325;1276;23936;-49
2023/03/05 02:33:30;;;;;;;33.80;25.40;;;;;;;8.76;58.14;100974.44;106516;1276;23887;-49
2023/03/05 02:36:01;;;;;;;36.40;25.70;;;;;;;8.72;58.09;100976.56;107046;1269;25513;-49
2023/03/05 02:38:30;;;;;;;39.20;25.10;;;;;;;8.67;57.88;100974.73;107013;1269;25340;-48
2023/03/05 02:40:59;;;;;;;37.20;25.90;;;;;;;8.60;57.67;100975.49;106723;1272;25328;-49
2023/03/05 02:43:27;;;;;;;37.70;25.60;;;;;;;8.55;57.55;100978.13;106929;1270;25443;-50
2023/03/05 02:45:56;;;;;;;31.20;24.10;;;;;;;8.51;57.37;100979.91;107020;1269;25350;-48
2023/03/05 02:48:25;;;;;;;36.00;24.90;;;;;;;8.45;57.36;100980.30;107129;1269;25511;-48
2023/03/05 02:50:54;;;;;;;30.20;23.00;;;;;;;8.43;57.35;100987.60;106374;1270;1003285;-48
2023/03/05 02:53:25;;;;;;;35.40;25.40;;;;;;;8.41;57.22;100987.44;106834;1273;25325;-48
2023/03/05 02:55:53;;;;;;;34.50;25.10;;;;;;;8.39;57.40;100986.59;107131;1269;22520;-48
2023/03/05 02:58:21;;;;;;;32.50;23.30;;;;;;;8.40;57.50;100988.48;107231;1269;25334;-48
2023/03/05 03:00:50;;;;;;;32.30;23.10;;;;;;;8.39;57.87;100986.95;106633;1275;25340;-49
2023/03/05 03:03:19;;;;;;;35.80;25.00;;;;;;;8.37;58.17;100991.44;107062;1269;23468;-48
2023/03/05 03:05:48;;;;;;;34.80;24.40;;;;;;;8.34;58.00;100992.67;106837;1272;22536;-49
2023/03/05 03:08:16;;;;;;;35.70;24.40;;;;;;;8.33;57.45;100993.72;106985;1269;25344;-48
2023/03/05 03:10:55;;;;;;;34.10;23.40;;;;;;;8.27;56.67;100990.30;107062;1269;23275;-50
2023/03/05 03:13:24;;;;;;;35.10;25.30;;;;;;;8.22;56.86;100993.96;106727;1270;25331;-48
2023/03/05 03:16:04;;;;;;;36.10;24.00;;;;;;;8.18;57.04;100990.19;107045;1269;22524;-48
2023/03/05 03:18:32;;;;;;;32.60;23.00;;;;;;;8.14;56.76;100987.64;106956;1268;22570;-48
2023/03/05 03:21:01;;;;;;;34.20;23.80;;;;;;;8.08;56.62;100988.54;107055;1269;25400;-48
2023/03/05 03:23:32;;;;;;;39.30;24.80;;;;;;;8.03;56.58;100989.27;106940;1269;24269;-49
2023/03/05 03:26:01;;;;;;;33.20;23.70;;;;;;;8.01;56.71;100989.80;106781;1276;25485;-48
2023/03/05 03:28:29;;;;;;;34.30;24.60;;;;;;;7.97;56.72;100991.57;106370;1270;1003698;-50
2023/03/05 03:30:58;;;;;;;37.70;23.50;;;;;;;7.92;56.73;100989.35;106384;1269;1003382;-48
2023/03/05 03:33:26;;;;;;;34.30;23.50;;;;;;;7.87;56.38;100991.12;107021;1269;25472;-48
2023/03/05 03:35:55;;;;;;;34.20;24.30;;;;;;;7.82;56.19;100989.92;106862;1272;23920;-48
2023/03/05 03:38:23;;;;;;;39.40;24.50;;;;;;;7.80;56.07;100992.37;107068;1269;25340;-48
2023/03/05 03:40:54;;;;;;;35.70;24.00;;;;;;;7.78;55.77;100991.70;107008;1269;25320;-48
2023/03/05 03:43:23;;;;;;;38.10;25.30;;;;;;;7.74;55.48;100996.56;107090;1269;25325;-48
2023/03/05 03:45:51;;;;;;;40.10;25.00;;;;;;;7.70;55.46;101002.98;107097;1269;24208;-48
2023/03/05 03:48:21;;;;;;;38.40;23.40;;;;;;;7.66;55.39;101007.83;106813;1270;25338;-48
2023/03/05 03:50:49;;;;;;;39.00;25.50;;;;;;;7.64;55.55;101004.74;106730;1269;22518;-48
2023/03/05 03:53:17;;;;;;;35.40;24.50;;;;;;;7.61;55.64;101005.96;106255;1272;1002721;-48
2023/03/05 03:55:45;;;;;;;36.70;24.10;;;;;;;7.59;55.89;101006.49;107048;1269;25369;-48
2023/03/05 03:58:14;;;;;;;38.00;25.20;;;;;;;7.55;55.18;101006.00;107088;1269;22527;-47
2023/03/05 04:00:42;;;;;;;39.30;24.40;;;;;;;7.52;55.42;101012.91;106378;1269;1003122;-47
2023/03/05 04:03:12;;;;;;;33.60;23.20;;;;;;;7.49;55.62;101016.73;106302;1269;1003493;-48
2023/03/05 04:05:42;;;;;;;37.10;23.90;;;;;;;7.44;56.19;101018.99;106991;1268;25350;-49
2023/03/05 04:08:11;;;;;;;35.60;24.50;;;;;;;7.42;56.63;101016.92;107031;1269;25376;-48
2023/03/05 04:10:40;;;;;;;35.70;23.10;;;;;;;7.42;57.19;101020.38;106883;1269;22511;-48
2023/03/05 04:13:09;;;;;;;36.10;24.30;;;;;;;7.43;57.08;101016.24;106926;1272;25328;-49
2023/03/05 04:15:43;;;;;;;35.20;23.20;;;;;;;7.42;56.59;101021.59;106034;1273;1003500;-48
2023/03/05 04:18:11;;;;;;;35.70;23.90;;;;;;;7.40;56.23;101024.71;106210;1268;1003116;-48
2023/03/05 04:20:40;;;;;;;35.60;24.30;;;;;;;7.40;56.84;101027.29;107094;1269;25359;-48
2023/03/05 04:23:09;;;;;;;38.60;25.00;;;;;;;7.42;56.74;101033.85;106855;1272;26494;-49
2023/03/05 04:25:37;;;;;;;34.30;24.30;;;;;;;7.42;56.74;101040.41;106301;1269;1003573;-48
2023/03/05 04:28:06;;;;;;;38.80;25.50;;;;;;;7.42;56.58;101041.80;106911;1269;25360;-48
2023/03/05 04:34:15;;;;;;;33.50;22.70;;;;;;;7.48;56.59;101047.98;103600;1308;544979;-48
2023/03/05 04:36:44;;;;;;;32.20;22.20;;;;;;;7.48;55.97;101047.80;105982;1282;25458;-49
2023/03/05 04:39:13;;;;;;;32.80;23.10;;;;;;;7.49;56.19;101052.45;105776;1286;25374;-48
2023/03/05 04:41:42;;;;;;;37.00;24.50;;;;;;;7.51;56.35;101054.53;106012;1289;25331;-48
2023/03/05 04:44:12;;;;;;;35.70;23.20;;;;;;;7.53;56.43;101065.23;105241;1282;1003542;-48
2023/03/05 04:46:41;;;;;;;36.70;23.30;;;;;;;7.53;56.29;101072.13;105216;1282;1003092;-48
2023/03/05 04:49:09;;;;;;;28.30;20.60;;;;;;;7.53;56.19;101072.83;105858;1283;22561;-48
2023/03/05 04:51:39;;;;;;;30.20;19.90;;;;;;;7.56;55.49;101074.88;106357;1280;25348;-48
2023/03/05 04:54:08;;;;;;;30.90;20.90;;;;;;;7.57;55.37;101075.90;106114;1282;25350;-49
2023/03/05 05:00:05;;;;;;;32.20;20.70;;;;;;;7.65;54.90;101079.15;103765;1291;544765;-48
2023/03/05 05:02:34;;;;;;;34.20;21.40;;;;;;;7.65;54.33;101086.91;105884;1287;25425;-48
2023/03/05 05:05:02;;;;;;;32.60;20.90;;;;;;;7.66;54.16;101094.86;106016;1282;25520;-48
2023/03/05 05:07:31;;;;;;;36.10;22.30;;;;;;;7.67;53.90;101099.34;105216;1282;1003424;-48
2023/03/05 05:10:03;;;;;;;31.50;20.60;;;;;;;7.65;53.89;101104.00;105934;1282;25523;-48
2023/03/05 05:12:32;;;;;;;29.20;20.60;;;;;;;7.64;53.81;101111.45;105793;1281;228699;-48
2023/03/05 05:15:01;;;;;;;26.30;19.20;;;;;;;7.65;53.85;101116.27;105815;1287;22613;-47
2023/03/05 05:17:31;;;;;;;26.00;18.30;;;;;;;7.67;53.77;101123.16;105249;1285;1003276;-48
2023/03/05 05:20:05;;;;;;;29.90;20.20;;;;;;;7.69;53.88;101119.19;105271;1284;1002992;-48
2023/03/05 05:22:34;;;;;;;29.80;18.90;;;;;;;7.73;53.56;101121.94;105608;1279;1003390;-48
2023/03/05 05:25:03;;;;;;;28.70;18.20;;;;;;;7.74;53.22;101120.90;105650;1280;1003666;-48
2023/03/05 05:27:33;;;;;;;24.90;17.90;;;;;;;7.75;52.87;101123.48;105988;1279;22559;-48
2023/03/05 05:30:02;;;;;;;29.20;19.80;;;;;;;7.75;52.84;101131.61;106341;1283;25370;-48
2023/03/05 05:32:31;;;;;;;30.10;20.10;;;;;;;7.74;52.93;101134.55;106342;1279;22538;-48
2023/03/05 05:34:59;;;;;;;28.80;18.00;;;;;;;7.75;52.74;101141.78;105978;1278;22530;-48
2023/03/05 05:37:28;;;;;;;27.70;18.90;;;;;;;7.78;52.32;101147.30;106341;1282;22604;-49
2023/03/05 05:39:58;;;;;;;27.10;19.10;;;;;;;7.79;52.20;101153.86;106341;1282;25397;-48
2023/03/05 05:42:28;;;;;;;28.80;18.60;;;;;;;7.80;52.17;101161.11;105937;1286;25334;-48
2023/03/05 05:44:57;;;;;;;30.50;19.80;;;;;;;7.81;52.03;101160.58;107101;1267;22565;-47
2023/03/05 05:47:26;;;;;;;28.20;18.80;;;;;;;7.82;52.10;101166.80;107180;1267;25402;-48
2023/03/05 05:49:55;;;;;;;27.40;18.50;;;;;;;7.82;52.41;101170.93;106831;1268;22641;-48
2023/03/05 05:52:24;;;;;;;27.50;18.40;;;;;;;7.86;52.27;101176.61;106944;1273;25416;-47
2023/03/05 05:54:52;;;;;;;27.00;18.50;;;;;;;7.89;52.33;101183.86;107063;1267;22635;-48
2023/03/05 05:57:21;;;;;;;28.50;19.10;;;;;;;7.93;52.07;101190.92;106930;1267;25341;-49
2023/03/05 05:59:50;;;;;;;27.90;18.90;;;;;;;7.94;51.96;101196.97;107022;1267;25458;-47
2023/03/05 06:02:18;;;;;;;27.10;18.60;;;;;;;7.97;52.17;101205.27;106199;1273;1002842;-48
2023/03/05 06:04:47;;;;;;;26.80;18.10;;;;;;;7.99;52.05;101205.25;107056;1267;22739;-48
2023/03/05 06:07:15;;;;;;;28.40;19.40;;;;;;;8.01;52.00;101211.80;106755;1275;25360;-48
2023/03/05 06:09:43;;;;;;;25.00;16.80;;;;;;;8.02;51.88;101218.02;107039;1267;25517;-48
2023/03/05 06:12:16;;;;;;;29.10;20.50;;;;;;;8.03;51.91;101218.54;106825;1270;25324;-47
2023/03/05 06:15:05;;;;;;;27.60;18.50;;;;;;;8.02;52.00;101220.27;106070;1270;1003205;-48
2023/03/05 06:17:33;;;;;;;35.70;21.90;;;;;;;8.00;52.09;101219.59;106767;1268;24000;-48
2023/03/05 06:20:05;;;;;;;31.40;20.70;;;;;;;7.96;51.60;101220.81;106284;1273;1002934;-48
2023/03/05 06:22:36;;;;;;;;;;;;;;;7.95;51.65;101223.06;106202;1270;1002854;-48
2023/03/05 06:25:08;;;;;;;29.50;19.60;;;;;;;7.99;51.69;101228.41;106273;1253;1003667;-48
2023/03/05 06:27:37;;;;;;;24.10;18.00;;;;;;;8.06;51.88;101231.65;107144;1268;22533;-47
2023/03/05 06:30:06;;;;;;;26.60;18.70;;;;;;;8.20;51.86;101234.35;106817;1269;25348;-48
2023/03/05 06:32:37;;;;;;;;;;;;;;;8.37;51.77;101237.41;106780;1270;25441;-47
2023/03/05 06:35:06;;;;;;;29.20;19.60;;;;;;;8.44;51.16;101243.09;107008;1269;22799;-48
2023/03/05 06:37:36;;;;;;;29.70;20.60;;;;;;;8.46;51.07;101246.54;107113;1271;25442;-48
2023/03/05 06:40:06;;;;;;;30.30;20.90;;;;;;;8.46;50.80;101243.43;107003;1275;25388;-48
2023/03/05 06:42:35;;;;;;;28.00;20.40;;;;;;;8.48;51.07;101246.36;106812;1273;22523;-47
2023/03/05 06:45:04;;;;;;;27.90;20.60;;;;;;;8.55;51.15;101247.17;106321;1270;1003507;-48
2023/03/05 06:47:33;;;;;;;29.90;20.60;;;;;;;8.64;50.99;101250.41;106859;1270;22839;-48
2023/03/05 06:50:04;;;;;;;28.70;20.90;;;;;;;8.72;50.82;101256.94;107001;1270;25338;-48
2023/03/05 06:52:33;;;;;;;30.90;21.20;;;;;;;8.80;50.74;101257.58;106749;1270;25379;-48
2023/03/05 06:55:04;;;;;;;32.30;22.20;;;;;;;8.85;50.37;101258.94;106370;1268;1003636;-48
2023/03/05 06:57:33;;;;;;;33.00;22.30;;;;;;;8.88;50.54;101260.98;107045;1270;22519;-48
2023/03/05 07:00:08;;;;;;;30.70;21.80;;;;;;;8.95;50.77;101261.98;107049;1270;25525;-48
2023/03/05 07:02:37;;;;;;;33.40;22.50;;;;;;;9.00;50.62;101264.88;106996;1270;22527;-47
2023/03/05 07:05:06;;;;;;;35.80;23.10;;;;;;;9.01;50.46;101267.98;107014;1270;24237;-48
2023/03/05 07:07:39;;;;;;;30.90;21.30;;;;;;;8.99;50.27;101266.44;106036;1270;1002926;-48
2023/03/05 07:10:10;;;;;;;30.80;21.30;;;;;;;9.02;50.58;101261.39;106678;1274;24276;-48
2023/03/05 07:12:42;;;;;;;28.90;21.30;;;;;;;9.03;50.11;101263.98;106924;1275;25328;-48
2023/03/05 07:15:11;;;;;;;31.40;21.90;;;;;;;8.99;50.14;101263.84;107073;1255;24234;-48
2023/03/05 07:17:40;;;;;;;34.30;22.80;;;;;;;8.96;50.14;101262.83;106798;1270;25287;-47
2023/03/05 07:20:09;;;;;;;31.20;21.40;;;;;;;8.96;50.53;101265.24;106797;1275;26574;-47
2023/03/05 07:22:37;;;;;;;29.30;21.20;;;;;;;9.00;50.60;101267.12;106858;1273;22527;-48
2023/03/05 07:25:06;;;;;;;32.80;21.70;;;;;;;9.05;50.53;101262.77;107057;1269;25390;-48
2023/03/05 07:27:36;;;;;;;36.00;22.70;;;;;;;9.04;50.48;101257.41;106809;1273;25363;-47
2023/03/05 07:30:06;;;;;;;31.30;22.10;;;;;;;8.99;50.53;101257.09;106037;1272;1003011;-47
2023/03/05 07:32:34;;;;;;;33.20;22.60;;;;;;;8.93;50.69;101251.42;107055;1271;24315;-47
2023/03/05 07:35:04;;;;;;;31.90;21.90;;;;;;;8.90;51.13;101254.75;107001;1268;22644;-48
2023/03/05 07:37:35;;;;;;;31.60;22.00;;;;;;;8.89;51.21;101251.80;105829;1275;1014718;-48
2023/03/05 07:40:04;;;;;;;31.30;21.70;;;;;;;8.90;51.31;101250.24;106352;1256;1002503;-48
2023/03/05 07:42:38;;;;;;;31.40;21.70;;;;;;;8.92;51.29;101250.23;106811;1268;25428;-48
2023/03/05 07:45:16;;;;;;;31.70;21.40;;;;;;;8.92;51.15;101252.98;107039;1269;25328;-48
2023/03/05 07:47:45;;;;;;;34.60;23.10;;;;;;;8.90;51.14;101251.28;106860;1271;25298;-49
2023/03/05 07:50:13;;;;;;;32.40;22.10;;;;;;;8.89;51.49;101256.65;107104;1269;22643;-47
2023/03/05 07:52:42;;;;;;;31.70;22.10;;;;;;;8.88;51.83;101252.34;106998;1269;25328;-48
2023/03/05 07:55:11;;;;;;;30.90;20.90;;;;;;;8.90;51.99;101253.53;106265;1269;1003545;-48
2023/03/05 07:57:39;;;;;;;29.60;21.00;;;;;;;8.94;52.03;101250.38;106007;1270;1003015;-48
2023/03/05 08:00:08;;;;;;;29.00;21.10;;;;;;;9.00;52.01;101245.84;107064;1268;25341;-48
2023/03/05 08:02:40;;;;;;;30.10;20.80;;;;;;;9.08;51.74;101245.42;106345;1269;1002968;-48
2023/03/05 08:05:09;;;;;;;28.60;20.80;;;;;;;9.12;51.63;101236.23;107039;1268;22524;-48
2023/03/05 08:07:53;;;;;;;29.00;20.70;;;;;;;9.17;51.36;101232.20;107036;1268;25342;-47
2023/03/05 08:10:21;;;;;;;30.50;21.00;;;;;;;9.15;51.41;101229.10;106937;1267;25336;-48
2023/03/05 08:12:50;;;;;;;29.80;20.70;;;;;;;9.13;51.67;101228.61;106831;1271;25424;-48
2023/03/05 08:15:19;;;;;;;25.90;19.50;;;;;;;9.12;51.52;101228.09;107034;1268;24308;-47
2023/03/05 08:17:47;;;;;;;25.90;18.50;;;;;;;9.15;51.41;101227.72;107108;1268;22637;-49
2023/03/05 08:20:18;;;;;;;25.50;18.90;;;;;;;9.20;51.08;101226.63;107071;1272;25470;-48
2023/03/05 08:22:46;;;;;;;26.00;18.20;;;;;;;9.27;51.25;101220.86;107134;1270;25347;-48
2023/03/05 08:25:17;;;;;;;26.10;17.90;;;;;;;9.37;50.88;101221.46;106357;1268;1003687;-48
2023/03/05 08:27:48;;;;;;;23.60;16.90;;;;;;;9.45;50.49;101223.80;106999;1268;22542;-47
2023/03/05 08:30:20;;;;;;;25.20;18.40;;;;;;;9.52;50.17;101222.87;106991;1272;25411;-48
2023/03/05 08:32:50;;;;;;;26.00;18.90;;;;;;;9.56;50.38;101219.36;107032;1268;22530;-47
2023/03/05 08:35:19;;;;;;;22.60;17.10;;;;;;;9.60;50.28;101221.91;106366;1268;1003020;-47
2023/03/05 08:37:53;;;;;;;25.00;17.40;;;;;;;9.65;50.15;101222.23;106766;1269;25367;-48
2023/03/05 08:40:22;;;;;;;23.50;17.50;;;;;;;9.73;50.23;101221.95;107028;1268;25222;-49
2023/03/05 08:42:51;;;;;;;22.70;17.00;;;;;;;9.83;50.02;101218.55;107019;1263;25366;-48
2023/03/05 08:45:22;;;;;;;;;;;;;;;9.92;49.66;101217.58;107022;1272;25326;-48
2023/03/05 08:47:51;;;;;;;23.00;17.20;;;;;;;10.01;49.66;101221.48;106307;1268;1003732;-48
2023/03/05 08:50:25;;;;;;;24.00;17.10;;;;;;;10.12;49.57;101221.19;106250;1269;1015682;-47
2023/03/05 08:52:55;;;;;;;23.30;17.70;;;;;;;10.24;49.43;101223.13;107058;1269;25356;-47
2023/03/05 08:55:24;;;;;;;21.90;16.40;;;;;;;10.34;48.56;101223.33;106237;1268;1016473;-47
2023/03/05 08:57:52;;;;;;;21.50;16.70;;;;;;;10.36;48.32;101219.30;106985;1270;25397;-47
2023/03/05 09:00:21;;;;;;;22.30;16.00;;;;;;;10.36;48.50;101223.30;106366;1269;1003824;-47
2023/03/05 09:02:51;;;;;;;20.70;15.10;;;;;;;10.41;47.39;101219.06;107095;1269;25363;-47
2023/03/05 09:05:20;;;;;;;20.30;14.40;;;;;;;10.42;46.81;101220.10;106323;1268;1003075;-48
2023/03/05 09:07:49;;;;;;;18.80;14.00;;;;;;;10.43;46.40;101210.19;107244;1271;25315;-48
2023/03/05 09:10:20;;;;;;;20.30;15.40;;;;;;;10.47;46.27;101211.34;107313;1261;25338;-48
2023/03/05 09:12:48;;;;;;;18.00;14.60;;;;;;;10.44;45.99;101212.95;107321;1263;23230;-48
2023/03/05 09:15:18;;;;;;;17.50;13.00;;;;;;;10.33;45.46;101215.54;107144;1268;25353;-47
2023/03/05 09:17:50;;;;;;;17.60;13.70;;;;;;;10.22;45.50;101214.83;107254;1270;25409;-47
2023/03/05 09:20:18;;;;;;;16.20;13.20;;;;;;;10.18;45.37;101207.95;107256;1267;24405;-47
2023/03/05 09:22:50;;;;;;;14.80;12.30;;;;;;;10.15;45.28;101205.19;106847;1270;25487;-48
2023/03/05 09:25:18;;;;;;;16.70;13.00;;;;;;;10.13;45.00;101197.61;107059;1268;25348;-48
2023/03/05 09:27:47;;;;;;;17.10;12.70;;;;;;;10.08;44.93;101196.77;107061;1269;25440;-48
2023/03/05 09:30:16;;;;;;;15.70;12.20;;;;;;;10.04;44.61;101190.23;105654;1273;1003549;-48
2023/03/05 09:32:45;;;;;;;14.70;11.00;;;;;;;10.00;44.75;101190.27;106741;1272;24342;-47
2023/03/05 09:35:14;;;;;;;16.30;12.10;;;;;;;10.03;44.83;101193.88;106934;1269;25325;-47
2023/03/05 09:37:43;;;;;;;14.70;10.90;;;;;;;10.08;44.63;101194.16;107053;1268;25376;-47
2023/03/05 09:40:14;;;;;;;13.70;10.70;;;;;;;10.12;44.43;101194.66;107082;1268;25331;-47
2023/03/05 09:43:11;;;;;;;13.80;11.10;;;;;;;10.18;44.60;101194.08;107168;1268;22597;-46
2023/03/05 09:46:05;;;;;;;13.30;10.40;;;;;;;10.25;44.61;101189.47;107072;1273;24389;-47
2023/03/05 09:48:55;;;;;;;12.90;9.50;;;;;;;10.32;44.08;101185.21;107088;1268;22790;-48
2023/03/05 09:51:25;;;;;;;13.50;9.80;;;;;;;10.39;43.75;101189.27;106083;1273;1002857;-48
2023/03/05 09:54:02;;;;;;;12.40;10.10;;;;;;;10.41;43.37;101184.72;107370;1267;22534;-47
2023/03/05 09:56:36;;;;;;;12.60;9.90;;;;;;;10.41;43.17;101183.69;106979;1271;24272;-47
2023/03/05 09:59:13;;;;;;;12.30;9.30;;;;;;;10.46;42.91;101182.20;106137;1268;1002706;-47
2023/03/05 10:01:41;;;;;;;13.70;10.50;;;;;;;10.50;42.56;101175.75;107016;1253;24289;-47
2023/03/05 10:04:17;;;;;;;13.10;10.40;;;;;;;10.46;42.56;101172.52;106980;1265;23194;-48
2023/03/05 10:06:45;;;;;;;14.80;10.70;;;;;;;10.42;42.54;101166.51;107202;1268;24381;-48
2023/03/05 10:09:20;;;;;;;13.90;11.10;;;;;;;10.45;42.87;101163.16;107104;1268;25523;-48
2023/03/05 10:11:59;;;;;;;15.30;11.30;;;;;;;10.47;43.14;101156.01;107162;1261;24285;-48
2023/03/05 10:14:37;;;;;;;16.80;11.50;;;;;;;10.50;43.02;101156.14;106359;1268;1003009;-47
2023/03/05 10:17:30;;;;;;;18.60;13.20;;;;;;;10.48;42.98;101152.52;106885;1274;25327;-47
2023/03/05 10:20:06;;;;;;;17.80;13.60;;;;;;;10.45;43.27;101150.48;107209;1268;26164;-48
2023/03/05 10:23:08;;;;;;;18.90;12.70;;;;;;;10.42;43.57;101143.42;106648;1264;25370;-48
2023/03/05 10:26:05;;;;;;;18.20;12.60;;;;;;;10.41;43.58;101138.95;106749;1271;24219;-47
2023/03/05 10:28:41;;;;;;;18.40;11.40;;;;;;;10.43;43.41;101135.78;106007;1271;1003565;-47
2023/03/05 10:31:23;;;;;;;13.70;10.90;;;;;;;10.44;43.09;101134.73;106130;1271;1002906;-48
2023/03/05 10:33:59;;;;;;;13.00;9.90;;;;;;;10.49;42.76;101126.67;106834;1271;22520;-47
2023/03/05 10:36:50;;;;;;;12.50;9.50;;;;;;;10.55;42.06;101124.33;106090;1270;1003015;-48
2023/03/05 10:39:40;;;;;;;12.50;9.00;;;;;;;10.59;41.17;101117.50;106956;1255;25394;-48
2023/03/05 10:42:12;;;;;;;13.00;8.60;;;;;;;10.60;40.93;101110.55;106727;1271;25367;-47
2023/03/05 10:44:42;;;;;;;11.70;8.60;;;;;;;10.63;40.99;101107.89;106225;1264;1003282;-47
2023/03/05 10:47:23;;;;;;;11.20;7.90;;;;;;;10.69;41.00;101108.84;106885;1267;24245;-47
2023/03/05 10:49:53;;;;;;;12.80;9.30;;;;;;;10.73;41.00;101107.36;106127;1271;1003753;-47
2023/03/05 10:52:34;;;;;;;12.20;9.10;;;;;;;10.76;40.74;101103.67;106869;1278;22555;-47
2023/03/05 10:55:19;;;;;;;9.90;7.90;;;;;;;10.80;40.67;101099.62;107170;1267;24372;-48
2023/03/05 10:57:48;;;;;;;13.10;8.80;;;;;;;10.86;39.81;101098.84;107286;1269;26579;-47
2023/03/05 11:00:18;;;;;;;11.90;8.40;;;;;;;10.89;39.80;101093.02;106490;1253;1003082;-47
2023/03/05 11:02:56;;;;;;;8.50;7.40;;;;;;;10.93;39.42;101092.45;106556;1259;1003010;-47
2023/03/05 11:05:37;;;;;;;11.60;8.10;;;;;;;10.96;39.28;101085.63;107059;1268;22523;-48
2023/03/05 11:08:34;;;;;;;9.70;8.50;;;;;;;10.99;39.33;101078.98;107306;1259;23465;-47
2023/03/05 11:11:11;;;;;;;11.90;7.50;;;;;;;11.01;39.72;101077.38;106854;1264;22519;-47
2023/03/05 11:13:58;;;;;;;9.80;7.60;;;;;;;11.05;39.60;101077.30;106829;1268;25404;-48
2023/03/05 11:16:28;;;;;;;10.00;7.50;;;;;;;11.11;39.07;101077.38;106903;1271;24223;-47
2023/03/05 11:19:17;;;;;;;10.00;7.30;;;;;;;11.13;38.66;101076.27;106947;1269;22523;-48
2023/03/05 11:22:02;;;;;;;10.90;7.90;;;;;;;11.15;37.92;101074.67;106918;1275;22606;-47
2023/03/05 11:24:32;;;;;;;10.30;7.80;;;;;;;11.19;37.85;101067.30;106800;1271;24521;-48
2023/03/05 11:27:00;;;;;;;9.90;7.60;;;;;;;11.23;38.00;101067.22;106946;1268;22543;-48
2023/03/05 11:33:14;;;;;;;8.90;6.80;;;;;;;11.28;37.42;101061.58;103737;1299;546043;-48
2023/03/05 11:35:43;;;;;;;8.80;6.80;;;;;;;11.27;37.20;101051.87;105792;1284;22806;-47
2023/03/05 11:38:20;;;;;;;10.90;6.90;;;;;;;11.28;37.64;101048.70;106005;1282;25344;-48